sensor_id;sensor_type;location;lat;lon;timestamp;P1;durP1;ratioP1;P2;durP2;ratioP2
23519;SDS011;11936;50.820;4.336;2023-04-03T00:01:36;11.38;;;4.93;;
23519;SDS011;11936;50.820;4.336;2023-04-03T00:04:03;9.13;;;5.10;;
23519;SDS011;11936;50.820;4.336;2023-04-03T00:06:30;8.27;;;4.82;;
23519;SDS011;11936;50.820;4.336;2023-04-03T00:08:59;7.40;;;4.53;;
23519;SDS011;11936;50.820;4.336;2023-04-03T00:11:26;10.02;;;4.60;;
23519;SDS011;11936;50.820;4.336;2023-04-03T00:13:51;7.18;;;4.35;;
23519;SDS011;11936;50.820;4.336;2023-04-03T00:16:17;6.03;;;4.28;;
23519;SDS011;11936;50.820;4.336;2023-04-03T00:18:43;8.27;;;4.30;;
23519;SDS011;11936;50.820;4.336;2023-04-03T00:21:09;9.45;;;4.82;;
23519;SDS011;11936;50.820;4.336;2023-04-03T00:23:37;6.57;;;4.00;;
23519;SDS011;11936;50.820;4.336;2023-04-03T00:26:02;7.53;;;4.05;;
23519;SDS011;11936;50.820;4.336;2023-04-03T00:28:28;8.13;;;4.05;;
23519;SDS011;11936;50.820;4.336;2023-04-03T00:30:54;7.57;;;4.88;;
23519;SDS011;11936;50.820;4.336;2023-04-03T00:33:19;7.82;;;3.90;;
23519;SDS011;11936;50.820;4.336;2023-04-03T00:35:49;6.80;;;3.97;;
23519;SDS011;11936;50.820;4.336;2023-04-03T00:38:15;6.18;;;3.80;;
23519;SDS011;11936;50.820;4.336;2023-04-03T00:40:42;7.78;;;3.90;;
23519;SDS011;11936;50.820;4.336;2023-04-03T00:45:47;8.80;;;4.20;;
23519;SDS011;11936;50.820;4.336;2023-04-03T00:48:18;8.10;;;3.80;;
23519;SDS011;11936;50.820;4.336;2023-04-03T00:50:46;9.20;;;3.80;;
23519;SDS011;11936;50.820;4.336;2023-04-03T00:53:17;10.02;;;4.00;;
23519;SDS011;11936;50.820;4.336;2023-04-03T00:55:47;9.98;;;4.65;;
23519;SDS011;11936;50.820;4.336;2023-04-03T00:58:13;6.38;;;3.83;;
23519;SDS011;11936;50.820;4.336;2023-04-03T01:00:42;7.13;;;4.38;;
23519;SDS011;11936;50.820;4.336;2023-04-03T01:03:11;7.85;;;4.15;;
23519;SDS011;11936;50.820;4.336;2023-04-03T01:05:37;7.20;;;4.13;;
23519;SDS011;11936;50.820;4.336;2023-04-03T01:08:02;8.68;;;4.05;;
23519;SDS011;11936;50.820;4.336;2023-04-03T01:10:28;7.03;;;4.57;;
23519;SDS011;11936;50.820;4.336;2023-04-03T01:12:54;7.55;;;4.30;;
23519;SDS011;11936;50.820;4.336;2023-04-03T01:15:21;7.00;;;4.35;;
23519;SDS011;11936;50.820;4.336;2023-04-03T01:17:50;7.90;;;4.30;;
23519;SDS011;11936;50.820;4.336;2023-04-03T01:25:50;5.83;;;3.87;;
23519;SDS011;11936;50.820;4.336;2023-04-03T01:28:19;6.47;;;3.85;;
23519;SDS011;11936;50.820;4.336;2023-04-03T01:33:51;7.35;;;4.38;;
23519;SDS011;11936;50.820;4.336;2023-04-03T01:36:19;6.65;;;4.20;;
23519;SDS011;11936;50.820;4.336;2023-04-03T01:38:48;8.45;;;4.00;;
23519;SDS011;11936;50.820;4.336;2023-04-03T01:41:13;5.68;;;3.95;;
23519;SDS011;11936;50.820;4.336;2023-04-03T01:43:40;8.30;;;4.30;;
23519;SDS011;11936;50.820;4.336;2023-04-03T01:46:06;7.85;;;4.32;;
23519;SDS011;11936;50.820;4.336;2023-04-03T01:48:32;7.53;;;4.00;;
23519;SDS011;11936;50.820;4.336;2023-04-03T01:50:58;7.55;;;4.15;;
23519;SDS011;11936;50.820;4.336;2023-04-03T01:53:24;6.40;;;4.38;;
23519;SDS011;11936;50.820;4.336;2023-04-03T01:55:49;10.77;;;4.18;;
23519;SDS011;11936;50.820;4.336;2023-04-03T01:58:15;7.72;;;4.00;;
23519;SDS011;11936;50.820;4.336;2023-04-03T02:00:41;7.03;;;4.13;;
23519;SDS011;11936;50.820;4.336;2023-04-03T02:03:06;5.97;;;3.90;;
23519;SDS011;11936;50.820;4.336;2023-04-03T02:05:32;5.75;;;4.25;;
23519;SDS011;11936;50.820;4.336;2023-04-03T02:07:58;7.43;;;4.20;;
23519;SDS011;11936;50.820;4.336;2023-04-03T02:10:23;7.35;;;4.50;;
23519;SDS011;11936;50.820;4.336;2023-04-03T02:12:49;9.13;;;4.10;;
23519;SDS011;11936;50.820;4.336;2023-04-03T02:15:15;9.32;;;6.00;;
23519;SDS011;11936;50.820;4.336;2023-04-03T02:17:41;9.82;;;5.55;;
23519;SDS011;11936;50.820;4.336;2023-04-03T02:20:07;7.50;;;4.38;;
23519;SDS011;11936;50.820;4.336;2023-04-03T02:22:33;6.05;;;4.00;;
23519;SDS011;11936;50.820;4.336;2023-04-03T02:24:58;5.28;;;4.07;;
23519;SDS011;11936;50.820;4.336;2023-04-03T02:27:24;7.85;;;4.22;;
23519;SDS011;11936;50.820;4.336;2023-04-03T02:29:50;7.28;;;4.35;;
23519;SDS011;11936;50.820;4.336;2023-04-03T02:32:15;6.72;;;4.45;;
23519;SDS011;11936;50.820;4.336;2023-04-03T02:34:41;7.22;;;3.88;;
23519;SDS011;11936;50.820;4.336;2023-04-03T02:37:06;9.82;;;4.22;;
23519;SDS011;11936;50.820;4.336;2023-04-03T02:39:32;7.18;;;4.07;;
23519;SDS011;11936;50.820;4.336;2023-04-03T02:41:57;7.15;;;4.30;;
23519;SDS011;11936;50.820;4.336;2023-04-03T02:44:23;6.07;;;3.83;;
23519;SDS011;11936;50.820;4.336;2023-04-03T02:46:49;8.00;;;4.70;;
23519;SDS011;11936;50.820;4.336;2023-04-03T02:49:15;8.57;;;5.10;;
23519;SDS011;11936;50.820;4.336;2023-04-03T02:51:41;5.40;;;4.20;;
23519;SDS011;11936;50.820;4.336;2023-04-03T02:54:06;9.85;;;4.93;;
23519;SDS011;11936;50.820;4.336;2023-04-03T02:56:32;7.93;;;5.18;;
23519;SDS011;11936;50.820;4.336;2023-04-03T02:58:58;5.25;;;4.22;;
23519;SDS011;11936;50.820;4.336;2023-04-03T03:01:24;8.50;;;4.47;;
23519;SDS011;11936;50.820;4.336;2023-04-03T03:03:53;6.45;;;4.50;;
23519;SDS011;11936;50.820;4.336;2023-04-03T03:06:19;6.50;;;4.30;;
23519;SDS011;11936;50.820;4.336;2023-04-03T03:08:44;9.10;;;4.60;;
23519;SDS011;11936;50.820;4.336;2023-04-03T03:11:10;7.90;;;4.60;;
23519;SDS011;11936;50.820;4.336;2023-04-03T03:13:36;8.57;;;4.50;;
23519;SDS011;11936;50.820;4.336;2023-04-03T03:16:02;10.40;;;4.22;;
23519;SDS011;11936;50.820;4.336;2023-04-03T03:18:28;8.65;;;4.60;;
23519;SDS011;11936;50.820;4.336;2023-04-03T03:20:54;9.27;;;4.47;;
23519;SDS011;11936;50.820;4.336;2023-04-03T03:23:22;5.90;;;4.13;;
23519;SDS011;11936;50.820;4.336;2023-04-03T03:25:53;5.25;;;3.80;;
23519;SDS011;11936;50.820;4.336;2023-04-03T03:28:21;7.00;;;4.40;;
23519;SDS011;11936;50.820;4.336;2023-04-03T03:30:46;6.82;;;4.30;;
23519;SDS011;11936;50.820;4.336;2023-04-03T03:33:12;6.85;;;3.90;;
23519;SDS011;11936;50.820;4.336;2023-04-03T03:35:38;11.27;;;4.63;;
23519;SDS011;11936;50.820;4.336;2023-04-03T03:38:03;7.35;;;4.50;;
23519;SDS011;11936;50.820;4.336;2023-04-03T03:40:29;5.53;;;4.40;;
23519;SDS011;11936;50.820;4.336;2023-04-03T03:42:54;8.85;;;4.72;;
23519;SDS011;11936;50.820;4.336;2023-04-03T03:45:20;5.70;;;4.03;;
23519;SDS011;11936;50.820;4.336;2023-04-03T03:47:45;5.82;;;4.47;;
23519;SDS011;11936;50.820;4.336;2023-04-03T03:50:11;7.97;;;4.30;;
23519;SDS011;11936;50.820;4.336;2023-04-03T03:52:36;6.05;;;4.22;;
23519;SDS011;11936;50.820;4.336;2023-04-03T03:55:03;6.47;;;4.32;;
23519;SDS011;11936;50.820;4.336;2023-04-03T03:57:29;7.70;;;4.82;;
23519;SDS011;11936;50.820;4.336;2023-04-03T03:59:55;6.60;;;4.78;;
23519;SDS011;11936;50.820;4.336;2023-04-03T04:02:21;8.05;;;4.80;;
23519;SDS011;11936;50.820;4.336;2023-04-03T04:04:46;6.70;;;4.28;;
23519;SDS011;11936;50.820;4.336;2023-04-03T04:07:16;6.85;;;4.60;;
23519;SDS011;11936;50.820;4.336;2023-04-03T04:09:41;8.60;;;4.55;;
23519;SDS011;11936;50.820;4.336;2023-04-03T04:12:07;6.32;;;4.22;;
23519;SDS011;11936;50.820;4.336;2023-04-03T04:14:33;6.03;;;4.45;;
23519;SDS011;11936;50.820;4.336;2023-04-03T04:16:58;9.02;;;4.78;;
23519;SDS011;11936;50.820;4.336;2023-04-03T04:19:24;7.63;;;4.60;;
23519;SDS011;11936;50.820;4.336;2023-04-03T04:21:49;8.23;;;5.15;;
23519;SDS011;11936;50.820;4.336;2023-04-03T04:24:15;5.75;;;4.55;;
23519;SDS011;11936;50.820;4.336;2023-04-03T04:26:41;8.40;;;5.00;;
23519;SDS011;11936;50.820;4.336;2023-04-03T04:29:08;9.32;;;4.50;;
23519;SDS011;11936;50.820;4.336;2023-04-03T04:31:34;6.55;;;4.72;;
23519;SDS011;11936;50.820;4.336;2023-04-03T04:34:00;7.38;;;4.35;;
23519;SDS011;11936;50.820;4.336;2023-04-03T04:36:26;15.65;;;4.80;;
23519;SDS011;11936;50.820;4.336;2023-04-03T04:38:51;9.57;;;4.45;;
23519;SDS011;11936;50.820;4.336;2023-04-03T04:41:20;8.07;;;4.55;;
23519;SDS011;11936;50.820;4.336;2023-04-03T04:43:53;8.05;;;5.45;;
23519;SDS011;11936;50.820;4.336;2023-04-03T04:48:46;8.48;;;4.47;;
23519;SDS011;11936;50.820;4.336;2023-04-03T04:51:15;7.05;;;4.55;;
23519;SDS011;11936;50.820;4.336;2023-04-03T04:53:41;9.20;;;5.32;;
23519;SDS011;11936;50.820;4.336;2023-04-03T04:56:07;10.05;;;4.85;;
23519;SDS011;11936;50.820;4.336;2023-04-03T04:58:33;6.55;;;4.65;;
23519;SDS011;11936;50.820;4.336;2023-04-03T05:01:00;8.57;;;4.97;;
23519;SDS011;11936;50.820;4.336;2023-04-03T05:03:31;12.05;;;5.35;;
23519;SDS011;11936;50.820;4.336;2023-04-03T05:05:56;7.82;;;5.25;;
23519;SDS011;11936;50.820;4.336;2023-04-03T05:08:22;8.85;;;5.40;;
23519;SDS011;11936;50.820;4.336;2023-04-03T05:10:48;8.05;;;6.07;;
23519;SDS011;11936;50.820;4.336;2023-04-03T05:13:14;15.65;;;6.60;;
23519;SDS011;11936;50.820;4.336;2023-04-03T05:15:40;7.90;;;6.50;;
23519;SDS011;11936;50.820;4.336;2023-04-03T05:18:06;12.32;;;5.57;;
23519;SDS011;11936;50.820;4.336;2023-04-03T05:20:32;8.02;;;5.70;;
23519;SDS011;11936;50.820;4.336;2023-04-03T05:22:58;10.15;;;6.32;;
23519;SDS011;11936;50.820;4.336;2023-04-03T05:25:24;8.63;;;6.25;;
23519;SDS011;11936;50.820;4.336;2023-04-03T05:27:49;12.02;;;6.05;;
23519;SDS011;11936;50.820;4.336;2023-04-03T05:30:15;10.18;;;6.13;;
23519;SDS011;11936;50.820;4.336;2023-04-03T05:32:41;11.27;;;6.85;;
23519;SDS011;11936;50.820;4.336;2023-04-03T05:35:07;13.00;;;7.38;;
23519;SDS011;11936;50.820;4.336;2023-04-03T05:40:02;11.55;;;7.15;;
23519;SDS011;11936;50.820;4.336;2023-04-03T05:42:28;11.20;;;6.78;;
23519;SDS011;11936;50.820;4.336;2023-04-03T05:44:54;8.68;;;6.18;;
23519;SDS011;11936;50.820;4.336;2023-04-03T05:47:20;10.10;;;6.43;;
23519;SDS011;11936;50.820;4.336;2023-04-03T05:49:46;8.32;;;6.13;;
23519;SDS011;11936;50.820;4.336;2023-04-03T05:52:17;12.00;;;7.57;;
23519;SDS011;11936;50.820;4.336;2023-04-03T05:54:52;8.23;;;6.35;;
23519;SDS011;11936;50.820;4.336;2023-04-03T05:57:18;11.50;;;6.53;;
23519;SDS011;11936;50.820;4.336;2023-04-03T05:59:46;9.55;;;5.80;;
23519;SDS011;11936;50.820;4.336;2023-04-03T06:02:13;18.13;;;6.60;;
23519;SDS011;11936;50.820;4.336;2023-04-03T06:08:09;9.43;;;5.85;;
23519;SDS011;11936;50.820;4.336;2023-04-03T06:10:35;7.47;;;6.10;;
23519;SDS011;11936;50.820;4.336;2023-04-03T06:13:01;10.88;;;5.95;;
23519;SDS011;11936;50.820;4.336;2023-04-03T06:15:27;9.52;;;6.25;;
23519;SDS011;11936;50.820;4.336;2023-04-03T06:17:53;10.38;;;6.20;;
23519;SDS011;11936;50.820;4.336;2023-04-03T06:20:18;8.63;;;6.40;;
23519;SDS011;11936;50.820;4.336;2023-04-03T06:22:44;10.27;;;6.97;;
23519;SDS011;11936;50.820;4.336;2023-04-03T06:25:11;10.20;;;6.10;;
23519;SDS011;11936;50.820;4.336;2023-04-03T06:27:37;16.67;;;6.72;;
23519;SDS011;11936;50.820;4.336;2023-04-03T06:30:03;13.85;;;7.22;;
23519;SDS011;11936;50.820;4.336;2023-04-03T06:32:30;10.93;;;6.85;;
23519;SDS011;11936;50.820;4.336;2023-04-03T06:34:56;14.65;;;6.10;;
23519;SDS011;11936;50.820;4.336;2023-04-03T06:37:22;9.48;;;6.22;;
23519;SDS011;11936;50.820;4.336;2023-04-03T06:39:51;14.55;;;6.82;;
23519;SDS011;11936;50.820;4.336;2023-04-03T06:42:16;12.27;;;7.07;;
23519;SDS011;11936;50.820;4.336;2023-04-03T06:44:42;11.52;;;6.22;;
23519;SDS011;11936;50.820;4.336;2023-04-03T06:49:40;11.93;;;6.45;;
23519;SDS011;11936;50.820;4.336;2023-04-03T06:52:06;12.63;;;7.00;;
23519;SDS011;11936;50.820;4.336;2023-04-03T06:54:32;10.93;;;7.25;;
23519;SDS011;11936;50.820;4.336;2023-04-03T06:57:01;11.88;;;7.35;;
23519;SDS011;11936;50.820;4.336;2023-04-03T06:59:27;13.05;;;6.93;;
23519;SDS011;11936;50.820;4.336;2023-04-03T07:01:53;15.60;;;6.75;;
23519;SDS011;11936;50.820;4.336;2023-04-03T07:04:18;10.52;;;6.60;;
23519;SDS011;11936;50.820;4.336;2023-04-03T07:06:45;17.92;;;7.55;;
23519;SDS011;11936;50.820;4.336;2023-04-03T07:09:12;13.25;;;7.50;;
23519;SDS011;11936;50.820;4.336;2023-04-03T07:11:38;13.68;;;7.25;;
23519;SDS011;11936;50.820;4.336;2023-04-03T07:14:04;10.98;;;7.22;;
23519;SDS011;11936;50.820;4.336;2023-04-03T07:16:40;12.70;;;7.35;;
23519;SDS011;11936;50.820;4.336;2023-04-03T07:19:08;16.67;;;7.88;;
23519;SDS011;11936;50.820;4.336;2023-04-03T07:21:34;11.13;;;7.40;;
23519;SDS011;11936;50.820;4.336;2023-04-03T07:24:00;11.55;;;7.28;;
23519;SDS011;11936;50.820;4.336;2023-04-03T07:26:26;9.20;;;7.13;;
23519;SDS011;11936;50.820;4.336;2023-04-03T07:28:52;9.88;;;7.65;;
23519;SDS011;11936;50.820;4.336;2023-04-03T07:31:18;12.38;;;7.38;;
23519;SDS011;11936;50.820;4.336;2023-04-03T07:33:49;9.48;;;7.43;;
23519;SDS011;11936;50.820;4.336;2023-04-03T07:36:16;11.10;;;7.28;;
23519;SDS011;11936;50.820;4.336;2023-04-03T07:41:17;15.93;;;6.95;;
23519;SDS011;11936;50.820;4.336;2023-04-03T07:43:45;11.43;;;6.53;;
23519;SDS011;11936;50.820;4.336;2023-04-03T07:46:11;13.57;;;7.10;;
23519;SDS011;11936;50.820;4.336;2023-04-03T07:48:37;9.32;;;6.25;;
23519;SDS011;11936;50.820;4.336;2023-04-03T07:51:03;11.32;;;6.78;;
23519;SDS011;11936;50.820;4.336;2023-04-03T07:53:30;11.13;;;7.43;;
23519;SDS011;11936;50.820;4.336;2023-04-03T07:55:57;12.15;;;6.22;;
23519;SDS011;11936;50.820;4.336;2023-04-03T07:58:24;24.00;;;7.78;;
23519;SDS011;11936;50.820;4.336;2023-04-03T08:00:50;10.55;;;6.72;;
23519;SDS011;11936;50.820;4.336;2023-04-03T08:03:16;13.23;;;6.38;;
23519;SDS011;11936;50.820;4.336;2023-04-03T08:05:43;10.10;;;6.65;;
23519;SDS011;11936;50.820;4.336;2023-04-03T08:08:11;8.38;;;6.35;;
23519;SDS011;11936;50.820;4.336;2023-04-03T08:10:38;10.77;;;6.55;;
23519;SDS011;11936;50.820;4.336;2023-04-03T08:13:04;7.13;;;5.85;;
23519;SDS011;11936;50.820;4.336;2023-04-03T08:15:30;9.32;;;5.68;;
23519;SDS011;11936;50.820;4.336;2023-04-03T08:17:56;12.80;;;6.72;;
23519;SDS011;11936;50.820;4.336;2023-04-03T08:20:23;13.98;;;6.45;;
23519;SDS011;11936;50.820;4.336;2023-04-03T08:22:48;10.65;;;6.57;;
23519;SDS011;11936;50.820;4.336;2023-04-03T08:25:14;12.88;;;6.13;;
23519;SDS011;11936;50.820;4.336;2023-04-03T08:27:40;9.50;;;5.78;;
23519;SDS011;11936;50.820;4.336;2023-04-03T08:30:06;9.85;;;6.53;;
23519;SDS011;11936;50.820;4.336;2023-04-03T08:32:35;10.45;;;5.88;;
23519;SDS011;11936;50.820;4.336;2023-04-03T08:35:02;15.73;;;6.93;;
23519;SDS011;11936;50.820;4.336;2023-04-03T08:37:28;10.98;;;5.55;;
23519;SDS011;11936;50.820;4.336;2023-04-03T08:39:54;14.77;;;5.65;;
23519;SDS011;11936;50.820;4.336;2023-04-03T08:44:59;11.82;;;5.78;;
23519;SDS011;11936;50.820;4.336;2023-04-03T08:50:30;15.13;;;5.78;;
23519;SDS011;11936;50.820;4.336;2023-04-03T08:53:00;9.98;;;5.10;;
23519;SDS011;11936;50.820;4.336;2023-04-03T08:55:29;12.05;;;6.63;;
23519;SDS011;11936;50.820;4.336;2023-04-03T09:03:13;9.60;;;5.65;;
23519;SDS011;11936;50.820;4.336;2023-04-03T09:05:57;7.28;;;5.50;;
23519;SDS011;11936;50.820;4.336;2023-04-03T09:08:43;11.82;;;5.55;;
23519;SDS011;11936;50.820;4.336;2023-04-03T09:20:17;8.75;;;4.55;;
23519;SDS011;11936;50.820;4.336;2023-04-03T09:22:51;10.95;;;4.07;;
23519;SDS011;11936;50.820;4.336;2023-04-03T09:25:31;8.68;;;3.75;;
23519;SDS011;11936;50.820;4.336;2023-04-03T09:28:01;9.00;;;4.07;;
23519;SDS011;11936;50.820;4.336;2023-04-03T09:30:27;8.02;;;4.07;;
23519;SDS011;11936;50.820;4.336;2023-04-03T09:32:54;5.90;;;3.63;;
23519;SDS011;11936;50.820;4.336;2023-04-03T09:35:23;10.82;;;3.40;;
23519;SDS011;11936;50.820;4.336;2023-04-03T09:37:50;6.20;;;3.25;;
23519;SDS011;11936;50.820;4.336;2023-04-03T09:43:00;9.18;;;3.63;;
23519;SDS011;11936;50.820;4.336;2023-04-03T09:45:41;4.45;;;2.97;;
23519;SDS011;11936;50.820;4.336;2023-04-03T09:48:15;9.05;;;3.22;;
23519;SDS011;11936;50.820;4.336;2023-04-03T09:50:56;8.48;;;3.03;;
23519;SDS011;11936;50.820;4.336;2023-04-03T09:53:37;7.68;;;3.42;;
23519;SDS011;11936;50.820;4.336;2023-04-03T09:58:43;3.17;;;2.63;;
23519;SDS011;11936;50.820;4.336;2023-04-03T10:04:13;7.07;;;3.10;;
23519;SDS011;11936;50.820;4.336;2023-04-03T10:06:44;6.25;;;3.00;;
23519;SDS011;11936;50.820;4.336;2023-04-03T10:14:38;5.55;;;2.70;;
23519;SDS011;11936;50.820;4.336;2023-04-03T10:19:39;7.25;;;2.85;;
23519;SDS011;11936;50.820;4.336;2023-04-03T10:28:04;10.50;;;2.83;;
23519;SDS011;11936;50.820;4.336;2023-04-03T10:31:06;12.85;;;2.88;;
23519;SDS011;11936;50.820;4.336;2023-04-03T10:36:33;5.47;;;2.47;;
23519;SDS011;11936;50.820;4.336;2023-04-03T10:52:48;4.50;;;2.35;;
23519;SDS011;11936;50.820;4.336;2023-04-03T10:58:27;4.75;;;2.33;;
23519;SDS011;11936;50.820;4.336;2023-04-03T11:00:59;7.15;;;2.35;;
23519;SDS011;11936;50.820;4.336;2023-04-03T11:03:58;8.07;;;2.80;;
23519;SDS011;11936;50.820;4.336;2023-04-03T11:06:26;7.45;;;3.08;;
23519;SDS011;11936;50.820;4.336;2023-04-03T11:09:05;5.13;;;2.30;;
23519;SDS011;11936;50.820;4.336;2023-04-03T11:12:02;5.32;;;2.33;;
23519;SDS011;11936;50.820;4.336;2023-04-03T11:14:32;6.50;;;1.90;;
23519;SDS011;11936;50.820;4.336;2023-04-03T11:22:28;4.97;;;1.52;;
23519;SDS011;11936;50.820;4.336;2023-04-03T11:25:22;6.05;;;2.20;;
23519;SDS011;11936;50.820;4.336;2023-04-03T11:30:32;6.25;;;2.17;;
23519;SDS011;11936;50.820;4.336;2023-04-03T11:33:40;4.25;;;1.75;;
23519;SDS011;11936;50.820;4.336;2023-04-03T11:36:24;4.40;;;2.05;;
23519;SDS011;11936;50.820;4.336;2023-04-03T11:38:56;2.70;;;1.70;;
23519;SDS011;11936;50.820;4.336;2023-04-03T11:41:25;8.98;;;2.75;;
23519;SDS011;11936;50.820;4.336;2023-04-03T11:43:58;4.88;;;2.22;;
23519;SDS011;11936;50.820;4.336;2023-04-03T12:05:50;3.72;;;1.75;;
23519;SDS011;11936;50.820;4.336;2023-04-03T12:16:07;5.60;;;2.30;;
23519;SDS011;11936;50.820;4.336;2023-04-03T12:27:00;6.68;;;2.30;;
23519;SDS011;11936;50.820;4.336;2023-04-03T12:29:37;11.27;;;2.90;;
23519;SDS011;11936;50.820;4.336;2023-04-03T12:43:16;3.47;;;1.70;;
23519;SDS011;11936;50.820;4.336;2023-04-03T12:45:58;5.10;;;1.73;;
23519;SDS011;11936;50.820;4.336;2023-04-03T12:48:47;3.55;;;1.73;;
23519;SDS011;11936;50.820;4.336;2023-04-03T12:53:57;3.47;;;1.92;;
23519;SDS011;11936;50.820;4.336;2023-04-03T12:56:31;4.82;;;2.25;;
23519;SDS011;11936;50.820;4.336;2023-04-03T12:59:12;2.88;;;1.77;;
23519;SDS011;11936;50.820;4.336;2023-04-03T13:01:42;4.43;;;1.55;;
23519;SDS011;11936;50.820;4.336;2023-04-03T13:04:10;3.17;;;1.83;;
23519;SDS011;11936;50.820;4.336;2023-04-03T13:06:41;4.97;;;1.63;;
23519;SDS011;11936;50.820;4.336;2023-04-03T13:09:23;3.45;;;1.83;;
23519;SDS011;11936;50.820;4.336;2023-04-03T13:11:55;2.92;;;1.70;;
23519;SDS011;11936;50.820;4.336;2023-04-03T13:14:37;3.75;;;1.70;;
23519;SDS011;11936;50.820;4.336;2023-04-03T13:17:06;4.88;;;2.00;;
23519;SDS011;11936;50.820;4.336;2023-04-03T13:19:38;3.88;;;1.95;;
23519;SDS011;11936;50.820;4.336;2023-04-03T13:22:05;4.38;;;1.77;;
23519;SDS011;11936;50.820;4.336;2023-04-03T13:24:36;12.55;;;2.08;;
23519;SDS011;11936;50.820;4.336;2023-04-03T13:27:06;5.60;;;2.10;;
23519;SDS011;11936;50.820;4.336;2023-04-03T13:29:33;3.95;;;1.80;;
23519;SDS011;11936;50.820;4.336;2023-04-03T13:32:00;3.35;;;1.70;;
23519;SDS011;11936;50.820;4.336;2023-04-03T13:34:35;14.27;;;4.10;;
23519;SDS011;11936;50.820;4.336;2023-04-03T13:37:02;5.22;;;1.85;;
23519;SDS011;11936;50.820;4.336;2023-04-03T13:39:33;2.92;;;1.40;;
23519;SDS011;11936;50.820;4.336;2023-04-03T13:42:20;2.17;;;1.30;;
23519;SDS011;11936;50.820;4.336;2023-04-03T13:47:53;2.95;;;1.45;;
23519;SDS011;11936;50.820;4.336;2023-04-03T13:50:50;4.82;;;2.03;;
23519;SDS011;11936;50.820;4.336;2023-04-03T13:53:17;11.30;;;2.33;;
23519;SDS011;11936;50.820;4.336;2023-04-03T13:55:55;13.40;;;2.53;;
23519;SDS011;11936;50.820;4.336;2023-04-03T13:58:25;3.72;;;1.95;;
23519;SDS011;11936;50.820;4.336;2023-04-03T14:01:17;6.07;;;1.98;;
23519;SDS011;11936;50.820;4.336;2023-04-03T14:03:53;4.80;;;1.50;;
23519;SDS011;11936;50.820;4.336;2023-04-03T14:06:19;8.43;;;1.90;;
23519;SDS011;11936;50.820;4.336;2023-04-03T14:08:45;4.75;;;2.17;;
23519;SDS011;11936;50.820;4.336;2023-04-03T14:11:16;4.22;;;1.90;;
23519;SDS011;11936;50.820;4.336;2023-04-03T14:13:46;8.57;;;2.10;;
23519;SDS011;11936;50.820;4.336;2023-04-03T14:16:13;4.25;;;1.80;;
23519;SDS011;11936;50.820;4.336;2023-04-03T14:18:48;4.65;;;2.17;;
23519;SDS011;11936;50.820;4.336;2023-04-03T14:21:15;3.20;;;1.85;;
23519;SDS011;11936;50.820;4.336;2023-04-03T14:23:43;7.50;;;2.10;;
23519;SDS011;11936;50.820;4.336;2023-04-03T14:26:13;3.10;;;1.80;;
23519;SDS011;11936;50.820;4.336;2023-04-03T14:28:47;2.88;;;1.92;;
23519;SDS011;11936;50.820;4.336;2023-04-03T14:31:15;13.00;;;2.28;;
23519;SDS011;11936;50.820;4.336;2023-04-03T14:33:42;3.45;;;2.40;;
23519;SDS011;11936;50.820;4.336;2023-04-03T14:36:12;2.65;;;1.48;;
23519;SDS011;11936;50.820;4.336;2023-04-03T14:38:52;4.72;;;1.98;;
23519;SDS011;11936;50.820;4.336;2023-04-03T14:41:19;4.43;;;1.85;;
23519;SDS011;11936;50.820;4.336;2023-04-03T14:43:48;3.75;;;1.90;;
23519;SDS011;11936;50.820;4.336;2023-04-03T14:46:19;5.65;;;2.35;;
23519;SDS011;11936;50.820;4.336;2023-04-03T14:48:51;6.53;;;2.17;;
23519;SDS011;11936;50.820;4.336;2023-04-03T14:51:16;7.25;;;1.88;;
23519;SDS011;11936;50.820;4.336;2023-04-03T14:53:43;4.05;;;1.70;;
23519;SDS011;11936;50.820;4.336;2023-04-03T14:56:18;6.40;;;2.25;;
23519;SDS011;11936;50.820;4.336;2023-04-03T14:58:47;3.40;;;2.10;;
23519;SDS011;11936;50.820;4.336;2023-04-03T15:01:15;5.93;;;2.22;;
23519;SDS011;11936;50.820;4.336;2023-04-03T15:03:42;4.47;;;1.88;;
23519;SDS011;11936;50.820;4.336;2023-04-03T15:06:11;8.48;;;2.20;;
23519;SDS011;11936;50.820;4.336;2023-04-03T15:08:38;4.63;;;2.00;;
23519;SDS011;11936;50.820;4.336;2023-04-03T15:11:06;8.80;;;2.13;;
23519;SDS011;11936;50.820;4.336;2023-04-03T15:13:32;5.90;;;1.98;;
23519;SDS011;11936;50.820;4.336;2023-04-03T15:15:58;7.82;;;2.28;;
23519;SDS011;11936;50.820;4.336;2023-04-03T15:18:24;8.38;;;2.22;;
23519;SDS011;11936;50.820;4.336;2023-04-03T15:20:51;3.88;;;1.88;;
23519;SDS011;11936;50.820;4.336;2023-04-03T15:23:17;3.97;;;1.60;;
23519;SDS011;11936;50.820;4.336;2023-04-03T15:25:44;10.35;;;1.80;;
23519;SDS011;11936;50.820;4.336;2023-04-03T15:30:57;5.82;;;1.90;;
23519;SDS011;11936;50.820;4.336;2023-04-03T15:33:23;1.95;;;1.50;;
23519;SDS011;11936;50.820;4.336;2023-04-03T15:35:49;7.35;;;2.17;;
23519;SDS011;11936;50.820;4.336;2023-04-03T15:38:15;4.93;;;2.00;;
23519;SDS011;11936;50.820;4.336;2023-04-03T15:40:41;7.20;;;2.10;;
23519;SDS011;11936;50.820;4.336;2023-04-03T15:43:08;3.13;;;1.98;;
23519;SDS011;11936;50.820;4.336;2023-04-03T15:45:35;3.92;;;2.15;;
23519;SDS011;11936;50.820;4.336;2023-04-03T15:48:02;4.13;;;1.65;;
23519;SDS011;11936;50.820;4.336;2023-04-03T15:50:29;5.63;;;2.03;;
23519;SDS011;11936;50.820;4.336;2023-04-03T15:52:56;6.22;;;1.70;;
23519;SDS011;11936;50.820;4.336;2023-04-03T15:55:24;2.50;;;1.73;;
23519;SDS011;11936;50.820;4.336;2023-04-03T15:57:51;6.80;;;2.00;;
23519;SDS011;11936;50.820;4.336;2023-04-03T16:00:18;5.15;;;2.00;;
23519;SDS011;11936;50.820;4.336;2023-04-03T16:02:45;5.03;;;2.00;;
23519;SDS011;11936;50.820;4.336;2023-04-03T16:05:13;3.47;;;1.70;;
23519;SDS011;11936;50.820;4.336;2023-04-03T16:07:42;8.25;;;2.45;;
23519;SDS011;11936;50.820;4.336;2023-04-03T16:10:09;4.28;;;2.20;;
23519;SDS011;11936;50.820;4.336;2023-04-03T16:12:35;4.82;;;2.30;;
23519;SDS011;11936;50.820;4.336;2023-04-03T16:15:01;12.20;;;2.30;;
23519;SDS011;11936;50.820;4.336;2023-04-03T16:17:27;9.10;;;2.22;;
23519;SDS011;11936;50.820;4.336;2023-04-03T16:19:53;3.03;;;2.08;;
23519;SDS011;11936;50.820;4.336;2023-04-03T16:22:20;3.65;;;1.90;;
23519;SDS011;11936;50.820;4.336;2023-04-03T16:24:48;3.13;;;2.03;;
23519;SDS011;11936;50.820;4.336;2023-04-03T16:27:14;4.05;;;2.45;;
23519;SDS011;11936;50.820;4.336;2023-04-03T16:29:40;5.78;;;2.47;;
23519;SDS011;11936;50.820;4.336;2023-04-03T16:32:05;5.88;;;2.17;;
23519;SDS011;11936;50.820;4.336;2023-04-03T16:34:31;4.13;;;2.13;;
23519;SDS011;11936;50.820;4.336;2023-04-03T16:36:57;5.53;;;2.53;;
23519;SDS011;11936;50.820;4.336;2023-04-03T16:39:23;6.03;;;2.60;;
23519;SDS011;11936;50.820;4.336;2023-04-03T16:41:49;5.07;;;2.40;;
23519;SDS011;11936;50.820;4.336;2023-04-03T16:44:14;5.55;;;2.50;;
23519;SDS011;11936;50.820;4.336;2023-04-03T16:46:40;7.30;;;2.75;;
23519;SDS011;11936;50.820;4.336;2023-04-03T16:49:06;3.75;;;2.40;;
23519;SDS011;11936;50.820;4.336;2023-04-03T16:51:32;5.43;;;2.70;;
23519;SDS011;11936;50.820;4.336;2023-04-03T16:53:57;22.05;;;3.95;;
23519;SDS011;11936;50.820;4.336;2023-04-03T16:56:23;4.18;;;2.42;;
23519;SDS011;11936;50.820;4.336;2023-04-03T16:58:51;13.52;;;2.92;;
23519;SDS011;11936;50.820;4.336;2023-04-03T17:01:19;8.75;;;2.60;;
23519;SDS011;11936;50.820;4.336;2023-04-03T17:03:45;6.43;;;2.70;;
23519;SDS011;11936;50.820;4.336;2023-04-03T17:06:12;6.20;;;2.60;;
23519;SDS011;11936;50.820;4.336;2023-04-03T17:08:42;5.88;;;2.60;;
23519;SDS011;11936;50.820;4.336;2023-04-03T17:11:12;6.63;;;3.17;;
23519;SDS011;11936;50.820;4.336;2023-04-03T17:13:38;6.05;;;3.35;;
23519;SDS011;11936;50.820;4.336;2023-04-03T17:16:05;10.07;;;2.33;;
23519;SDS011;11936;50.820;4.336;2023-04-03T17:18:33;6.10;;;2.95;;
23519;SDS011;11936;50.820;4.336;2023-04-03T17:21:01;6.35;;;2.45;;
23519;SDS011;11936;50.820;4.336;2023-04-03T17:23:45;6.63;;;2.42;;